Time;durP1;ratioP1;P1;durP2;ratioP2;P2;SDS_P1;SDS_P2;PMS_P1;PMS_P2;Temp;Humidity;BMP_temperature;BMP_pressure;BME280_temperature;BME280_humidity;BME280_pressure;Samples;Min_cycle;Max_cycle;Signal;HPM_P1;HPM_P2
2023/10/07 00:02:15;;;;;;;11.02;3.60;;;12.90;99.90;;;;;;5081760;28;20052;-62
2023/10/07 00:04:44;;;;;;;9.68;4.55;;;12.90;99.90;;;;;;5082211;28;20040;-63
2023/10/07 00:07:30;;;;;;;9.90;3.50;;;12.80;99.90;;;;;;5077496;28;20066;-63
2023/10/07 00:10:05;;;;;;;13.77;4.93;;;12.90;99.90;;;;;;5083291;28;20039;-63
2023/10/07 00:12:46;;;;;;;11.63;3.72;;;12.80;99.90;;;;;;5080091;28;20036;-63
2023/10/07 00:15:30;;;;;;;8.15;3.45;;;12.80;99.90;;;;;;5077233;28;20051;-62
2023/10/07 00:18:12;;;;;;;9.20;3.45;;;12.80;99.90;;;;;;5070052;28;20070;-63
2023/10/07 00:20:56;;;;;;;12.02;3.88;;;12.80;99.90;;;;;;5067955;28;20048;-63
2023/10/07 00:23:23;;;;;;;8.50;4.07;;;12.80;99.90;;;;;;5067156;28;20036;-63
2023/10/07 00:25:51;;;;;;;11.05;4.75;;;12.70;99.90;;;;;;5069329;28;20127;-62
2023/10/07 00:28:18;;;;;;;10.48;3.65;;;12.80;99.90;;;;;;5052009;28;20040;-62
2023/10/07 00:30:49;;;;;;;10.65;4.03;;;12.70;99.90;;;;;;5068562;28;20037;-62
2023/10/07 00:33:19;;;;;;;11.20;3.63;;;12.70;99.90;;;;;;5066937;28;20625;-63
2023/10/07 00:35:49;;;;;;;10.70;3.72;;;12.70;99.90;;;;;;5069904;28;20047;-63
2023/10/07 00:38:15;;;;;;;9.00;4.00;;;12.70;99.90;;;;;;5066776;28;20032;-64
2023/10/07 00:40:57;;;;;;;;;;;12.70;99.90;;;;;;5070735;28;20127;-63
2023/10/07 00:43:26;;;;;;;13.85;4.00;;;12.60;99.90;;;;;;5067026;28;19924;-64
2023/10/07 00:45:59;;;;;;;7.28;3.88;;;12.60;99.90;;;;;;5069283;28;20048;-64
2023/10/07 00:48:38;;;;;;;12.55;3.60;;;12.60;99.90;;;;;;5067081;28;20075;-63
2023/10/07 00:51:11;;;;;;;10.85;4.10;;;12.60;99.90;;;;;;5069177;28;20560;-62
2023/10/07 00:53:52;;;;;;;12.45;4.07;;;12.50;99.90;;;;;;5067175;28;20135;-62
2023/10/07 00:56:19;;;;;;;11.18;3.67;;;12.50;99.90;;;;;;5069517;28;20036;-63
2023/10/07 00:58:46;;;;;;;11.48;3.78;;;12.50;99.90;;;;;;5067251;28;20055;-63
2023/10/07 01:01:13;;;;;;;10.63;4.20;;;12.50;99.90;;;;;;5068639;28;20032;-63
2023/10/07 01:03:48;;;;;;;7.75;3.35;;;12.50;99.90;;;;;;5067133;28;20056;-62
2023/10/07 01:06:26;;;;;;;9.18;3.50;;;12.40;99.90;;;;;;5070303;28;20037;-64
2023/10/07 01:08:58;;;;;;;8.50;3.83;;;12.40;99.90;;;;;;5067029;28;20040;-63
2023/10/07 01:11:29;;;;;;;8.50;3.90;;;12.40;99.90;;;;;;5070504;28;20508;-63
2023/10/07 01:13:59;;;;;;;11.32;3.90;;;12.40;99.90;;;;;;5066945;28;20068;-64
2023/10/07 01:19:26;;;;;;;10.43;3.33;;;12.40;99.90;;;;;;5066109;28;20060;-63
2023/10/07 01:21:55;;;;;;;10.23;3.40;;;12.40;99.90;;;;;;5068854;28;20086;-63
2023/10/07 01:27:07;;;;;;;11.68;4.00;;;12.30;99.90;;;;;;5067192;28;20327;-63
2023/10/07 01:29:34;;;;;;;9.27;3.65;;;12.30;99.90;;;;;;5066475;28;20393;-61
2023/10/07 01:32:03;;;;;;;7.65;3.50;;;12.30;99.90;;;;;;5068215;28;20064;-63
2023/10/07 01:34:35;;;;;;;11.15;4.40;;;12.30;99.90;;;;;;5066683;28;20044;-63
2023/10/07 01:37:03;;;;;;;9.77;4.18;;;12.30;99.90;;;;;;5066832;28;20563;-63
2023/10/07 01:39:39;;;;;;;11.45;3.65;;;12.30;99.90;;;;;;5065235;28;20063;-62
2023/10/07 01:42:06;;;;;;;9.10;3.80;;;12.30;99.90;;;;;;5067888;28;20056;-61
2023/10/07 01:44:32;;;;;;;11.60;4.55;;;12.20;99.90;;;;;;5066430;28;20040;-63
2023/10/07 01:46:58;;;;;;;10.77;3.72;;;12.20;99.90;;;;;;5068276;28;20072;-63
2023/10/07 01:49:24;;;;;;;10.68;3.60;;;12.20;99.90;;;;;;5065545;28;20036;-63
2023/10/07 01:51:52;;;;;;;;;;;12.20;99.90;;;;;;5069314;28;20040;-63
2023/10/07 01:54:20;;;;;;;8.23;2.97;;;12.20;99.90;;;;;;5066208;28;20053;-63
2023/10/07 01:56:48;;;;;;;10.63;4.78;;;12.20;99.90;;;;;;5067107;28;20051;-63
2023/10/07 02:01:42;;;;;;;;;;;12.20;99.90;;;;;;5068305;28;20044;-63
2023/10/07 02:04:26;;;;;;;14.75;4.43;;;12.20;99.90;;;;;;5065867;28;19924;-64
2023/10/07 02:06:56;;;;;;;12.65;4.50;;;12.20;99.90;;;;;;5068497;28;20488;-61
2023/10/07 02:09:25;;;;;;;13.70;5.00;;;12.30;99.90;;;;;;5069854;28;20585;-64
2023/10/07 02:12:08;;;;;;;12.60;4.80;;;12.20;99.90;;;;;;5069430;28;20052;-63
2023/10/07 02:14:34;;;;;;;11.75;4.78;;;12.20;99.90;;;;;;5070789;28;20039;-63
2023/10/07 02:16:59;;;;;;;;;;;12.20;99.90;;;;;;5071202;28;20119;-63
2023/10/07 02:19:28;;;;;;;11.50;4.93;;;12.20;99.90;;;;;;5065115;28;19931;-64
2023/10/07 02:22:03;;;;;;;17.35;6.22;;;12.20;99.90;;;;;;5068017;28;20123;-63
2023/10/07 02:24:36;;;;;;;13.15;5.20;;;12.20;99.90;;;;;;5065275;28;20126;-64
2023/10/07 02:27:08;;;;;;;11.38;5.45;;;12.30;99.90;;;;;;5064921;28;20090;-62
2023/10/07 02:29:34;;;;;;;17.77;6.10;;;12.30;99.90;;;;;;5066578;28;20514;-64
2023/10/07 02:32:34;;;;;;;;;;;12.30;99.90;;;;;;5067126;28;20036;-64
2023/10/07 02:34:52;;;;;;;14.25;5.30;;;12.30;99.90;;;;;;5064676;28;19920;-63
2023/10/07 02:37:18;;;;;;;;;;;12.30;99.90;;;;;;5065276;28;20556;-63
2023/10/07 02:39:47;;;;;;;9.40;4.72;;;12.30;99.90;;;;;;5066233;28;20002;-64
2023/10/07 02:42:23;;;;;;;11.57;5.43;;;12.30;99.90;;;;;;5066928;28;20044;-64
2023/10/07 02:45:00;;;;;;;15.77;5.20;;;12.30;99.90;;;;;;5064530;28;20043;-64
2023/10/07 02:47:31;;;;;;;12.13;5.70;;;12.30;99.90;;;;;;5061218;28;20120;-64
2023/10/07 02:50:00;;;;;;;12.02;5.50;;;12.30;99.90;;;;;;5067701;28;20048;-62
2023/10/07 02:52:34;;;;;;;17.77;5.78;;;12.20;99.90;;;;;;5063580;28;20535;-64
2023/10/07 02:55:47;;;;;;;16.27;6.22;;;12.30;99.90;;;;;;5066217;28;20037;-64
2023/10/07 02:57:47;;;;;;;12.98;4.88;;;12.30;99.90;;;;;;5053973;28;20047;-63
2023/10/07 03:00:29;;;;;;;11.88;5.03;;;12.30;99.90;;;;;;5067716;28;20036;-64
2023/10/07 03:03:10;;;;;;;16.60;5.43;;;12.30;99.90;;;;;;5084142;28;20059;-64
2023/10/07 03:05:43;;;;;;;15.63;5.60;;;12.20;99.90;;;;;;5084606;28;20093;-62
2023/10/07 03:08:19;;;;;;;13.63;5.35;;;12.20;99.90;;;;;;5084631;28;20044;-62
2023/10/07 03:13:37;;;;;;;15.18;6.60;;;12.30;99.90;;;;;;5082611;28;20531;-63
2023/10/07 03:24:10;;;;;;;13.43;5.78;;;12.30;99.90;;;;;;5082583;28;20364;-62
2023/10/07 03:26:41;;;;;;;16.50;6.30;;;12.20;99.90;;;;;;5088551;28;20040;-62
2023/10/07 03:29:07;;;;;;;12.95;6.50;;;12.30;99.90;;;;;;5086012;28;20040;-63
2023/10/07 03:31:35;;;;;;;14.88;6.30;;;12.30;99.90;;;;;;5081711;27;20037;-62
2023/10/07 03:34:03;;;;;;;14.88;7.15;;;12.30;99.90;;;;;;5087336;28;20119;-63
2023/10/07 03:36:41;;;;;;;15.70;7.80;;;;;;;;;;5090168;28;20047;-62
2023/10/07 03:41:47;;;;;;;13.57;6.95;;;;;;;;;;5084011;28;20040;-63
2023/10/07 03:44:16;;;;;;;15.82;7.30;;;;;;;;;;5085902;28;20557;-63
2023/10/07 03:46:44;;;;;;;17.13;7.60;;;;;;;;;;5081451;28;20048;-62
2023/10/07 03:49:11;;;;;;;21.77;8.32;;;;;;;;;;5080807;28;20036;-63
2023/10/07 03:51:37;;;;;;;15.50;7.78;;;;;;;;;;5093780;28;20074;-63
2023/10/07 03:54:15;;;;;;;19.15;7.97;;;;;;;;;;5088208;28;20403;-63
2023/10/07 03:56:42;;;;;;;19.08;7.78;;;;;;;;;;5085918;28;20047;-62
2023/10/07 03:59:09;;;;;;;15.90;8.45;;;;;;;;;;5088818;28;20048;-63
2023/10/07 04:01:42;;;;;;;17.92;9.05;;;;;;;;;;5088606;28;20043;-63
2023/10/07 04:04:11;;;;;;;16.65;8.82;;;;;;;;;;5088939;28;20142;-64
2023/10/07 04:06:38;;;;;;;19.73;7.85;;;;;;;;;;5088516;28;20488;-63
2023/10/07 04:09:07;;;;;;;16.05;7.78;;;;;;;;;;5088046;28;20035;-63
2023/10/07 04:11:36;;;;;;;19.98;9.00;;;;;;;;;;5090139;28;20574;-63
2023/10/07 04:14:19;;;;;;;24.02;9.45;;;;;;;;;;5088214;28;20035;-62
2023/10/07 04:16:48;;;;;;;18.67;9.10;;;;;;;;;;5090900;28;20043;-63
2023/10/07 04:21:43;;;;;;;24.67;11.27;;;;;;;;;;5090892;28;20147;-62
2023/10/07 04:24:10;;;;;;;14.82;8.60;;;;;;;;;;5088499;28;20040;-62
2023/10/07 04:26:40;;;;;;;20.55;9.52;;;;;;;;;;5090078;28;20495;-63
2023/10/07 04:29:08;;;;;;;19.40;9.77;;;;;;;;;;5090085;28;20514;-64
2023/10/07 04:31:37;;;;;;;18.40;10.07;;;;;;;;;;5089426;28;20032;-63
2023/10/07 04:34:11;;;;;;;20.05;9.60;;;;;;;;;;5090288;28;20036;-63
2023/10/07 04:39:28;;;;;;;20.02;10.98;;;;;;;;;;5089568;28;20385;-64
2023/10/07 04:41:59;;;;;;;19.77;10.95;;;;;;;;;;5088130;28;20118;-63
2023/10/07 04:50:15;;;;;;;22.42;11.32;;;;;;;;;;5088936;28;20032;-63
2023/10/07 04:52:43;;;;;;;22.80;11.93;;;;;;;;;;5089199;28;20111;-63
2023/10/07 04:55:19;;;;;;;29.70;12.77;;;;;;;;;;5087505;28;20047;-63
2023/10/07 05:03:16;;;;;;;23.35;12.38;;;;;;;;;;5043110;28;20047;-63
2023/10/07 05:05:46;;;;;;;23.58;11.20;;;;;;;;;;5088002;28;20127;-64
2023/10/07 05:08:17;;;;;;;20.67;11.73;;;;;;;;;;5088442;28;20039;-63
2023/10/07 05:10:43;;;;;;;25.80;12.48;;;;;;;;;;5091690;28;20032;-63
2023/10/07 05:13:10;;;;;;;22.90;12.00;;;;;;;;;;5087658;28;20028;-63
2023/10/07 05:15:38;;;;;;;26.15;12.88;;;;;;;;;;5086829;28;20078;-63
2023/10/07 05:18:05;;;;;;;21.23;11.23;;;;;;;;;;5088116;28;20036;-63
2023/10/07 05:20:37;;;;;;;27.77;12.85;;;;;;;;;;5088501;28;20039;-63
2023/10/07 05:23:04;;;;;;;20.98;12.48;;;;;;;;;;5088434;28;20043;-62
2023/10/07 05:25:38;;;;;;;23.30;13.15;;;;;;;;;;5091170;28;20039;-62
2023/10/07 05:28:11;;;;;;;24.50;10.77;;;;;;;;;;5088104;28;20032;-63
2023/10/07 05:30:50;;;;;;;23.45;13.82;;;;;;;;;;5087637;28;20047;-62
2023/10/07 05:33:16;;;;;;;26.02;14.02;;;;;;;;;;5088671;28;20103;-63
2023/10/07 05:35:43;;;;;;;24.63;12.60;;;;;;;;;;5089121;28;20032;-61
2023/10/07 05:38:09;;;;;;;31.75;14.48;;;;;;;;;;5087878;28;20044;-63
2023/10/07 05:40:40;;;;;;;33.05;13.88;;;;;;;;;;5084974;28;20082;-63
2023/10/07 05:43:06;;;;;;;25.90;13.57;;;;;;;;;;5085079;28;20415;-62
2023/10/07 05:45:33;;;;;;;27.65;12.48;;;;;;;;;;5089404;28;20046;-62
2023/10/07 05:47:59;;;;;;;26.42;12.40;;;;;;;;;;5086623;28;20669;-63
2023/10/07 05:50:27;;;;;;;28.83;14.38;;;;;;;;;;5090185;28;20859;-62
2023/10/07 05:52:53;;;;;;;25.63;12.27;;;;;;;;;;5086127;28;20050;-63
2023/10/07 05:55:19;;;;;;;26.80;12.98;;;;;;;;;;5089144;28;20082;-64
2023/10/07 05:57:45;;;;;;;;;;;;;;;;;;5087234;28;20051;-63
2023/10/07 06:00:11;;;;;;;29.67;14.15;;;;;;;;;;5087729;28;19920;-63
2023/10/07 06:02:37;;;;;;;27.63;13.93;;;;;;;;;;5085347;28;20052;-63
2023/10/07 06:05:06;;;;;;;30.63;15.70;;;;;;;;;;5087296;28;20032;-61
2023/10/07 06:07:32;;;;;;;29.13;13.48;;;;;;;;;;5084464;28;20044;-63
2023/10/07 06:10:02;;;;;;;24.80;13.63;;;;;;;;;;5088041;28;20495;-57
2023/10/07 06:12:28;;;;;;;24.27;12.15;;;;;;;;;;5085570;28;20115;-61
2023/10/07 06:14:54;;;;;;;;;;;;;;;;;;5086630;28;20039;-62
2023/10/07 06:17:20;;;;;;;24.45;13.25;;;;;;;;;;5086329;28;19916;-60
2023/10/07 06:19:46;;;;;;;24.33;12.80;;;;;;;;;;5085799;28;20048;-61
2023/10/07 06:22:12;;;;;;;;;;;;;;;;;;5089210;28;20400;-62
2023/10/07 06:24:42;;;;;;;23.80;14.02;;;;;;;;;;5084882;28;19920;-63
2023/10/07 06:27:11;;;;;;;24.13;13.80;;;;;;;;;;5084175;28;20050;-61
2023/10/07 06:29:44;;;;;;;24.48;13.70;;;;;;;;;;5083606;28;20032;-59
2023/10/07 06:32:23;;;;;;;26.23;14.52;;;;;;;;;;5077365;28;21056;-61
2023/10/07 06:34:51;;;;;;;28.25;14.90;;;;;;;;;;5085552;28;20049;-61
2023/10/07 06:37:25;;;;;;;39.13;16.35;;;;;;;;;;5086556;28;20076;-62
2023/10/07 06:39:51;;;;;;;31.80;15.95;;;;;;;;;;5088194;28;20039;-62
2023/10/07 06:42:24;;;;;;;26.60;15.55;;;;;;;;;;5088185;28;20043;-62
2023/10/07 06:44:52;;;;;;;24.55;14.02;;;;;;;;;;5088088;28;20042;-60
2023/10/07 06:47:21;;;;;;;25.05;14.20;;;;;;;;;;5087048;28;20066;-61
2023/10/07 06:49:47;;;;;;;30.30;15.82;;;;;;;;;;5086447;28;20039;-62
2023/10/07 06:52:13;;;;;;;;;;;;;;;;;;5087656;28;20036;-61
2023/10/07 06:54:39;;;;;;;28.63;15.25;;;;;;;;;;5085002;28;19941;-62
2023/10/07 06:57:10;;;;;;;31.02;15.85;;;;;;;;;;5086511;28;20594;-61
2023/10/07 06:59:39;;;;;;;34.20;16.05;;;;;;;;;;5085376;28;20083;-62
2023/10/07 07:02:06;;;;;;;25.30;13.95;;;;;;;;;;5086556;28;20032;-58
2023/10/07 07:04:35;;;;;;;29.20;15.43;;;;;;;;;;5084497;28;20056;-61
2023/10/07 07:07:10;;;;;;;32.55;15.85;;;;;;;;;;5086184;28;20081;-60
2023/10/07 07:12:17;;;;;;;26.00;13.65;;;;;;;;;;5083564;28;20186;-61
2023/10/07 07:14:50;;;;;;;24.75;13.50;;;;;;;;;;5085061;28;20040;-60
2023/10/07 07:17:29;;;;;;;26.50;13.80;;;;;;;;;;5081692;28;20100;-62
2023/10/07 07:22:36;;;;;;;30.33;14.90;;;;;;;;;;5084851;28;20044;-61
2023/10/07 07:25:05;;;;;;;25.30;14.27;;;;;;;;;;5085459;28;20049;-62
2023/10/07 07:27:34;;;;;;;25.70;14.10;;;;;;;;;;5085637;28;20736;-61
2023/10/07 07:30:03;;;;;;;27.30;13.35;;;;;;;;;;5089324;28;20073;-61
2023/10/07 07:32:32;;;;;;;25.52;13.60;;;;;;;;;;5088352;28;20419;-60
2023/10/07 07:35:03;;;;;;;21.50;11.80;;;;;;;;;;5089065;28;20036;-60
2023/10/07 07:37:32;;;;;;;23.70;12.65;;;;;;;;;;5089120;28;20043;-61
2023/10/07 07:39:59;;;;;;;20.90;11.38;;;;;;;;;;5091046;28;20028;-61
2023/10/07 07:42:27;;;;;;;20.55;11.45;;;;;;;;;;5089753;28;20603;-61
2023/10/07 07:44:57;;;;;;;21.67;11.00;;;;;;;;;;5090322;28;20194;-62
2023/10/07 07:47:23;;;;;;;21.67;11.32;;;;;;;;;;5088567;28;20624;-61
2023/10/07 07:49:51;;;;;;;22.80;11.85;;;;;;;;;;5089490;28;20043;-60
2023/10/07 07:52:19;;;;;;;22.85;11.30;;;;;;;;;;5089940;28;20036;-62
2023/10/07 07:54:46;;;;;;;17.90;10.20;;;;;;;;;;5079334;28;20550;-62
2023/10/07 07:57:12;;;;;;;21.75;11.43;;;;;;;;;;5083157;28;20043;-62
2023/10/07 07:59:38;;;;;;;20.73;10.98;;;;;;;;;;5086798;28;20075;-61
2023/10/07 08:02:16;;;;;;;23.35;11.43;;;;;;;;;;5083991;28;20028;-61
2023/10/07 08:04:46;;;;;;;27.58;13.82;;;;;;;;;;5087173;28;20535;-62
2023/10/07 08:07:26;;;;;;;20.70;11.15;;;;;;;;;;5089634;28;20074;-62
2023/10/07 08:09:53;;;;;;;21.13;12.13;;;;;;;;;;5088096;28;20116;-62
2023/10/07 08:12:36;;;;;;;21.65;11.85;;;;;;;;;;5089317;28;20039;-60
2023/10/07 08:17:45;;;;;;;27.27;12.45;;;;;;;;;;5087112;28;20045;-61
2023/10/07 08:20:12;;;;;;;23.50;13.70;;;;;;;;;;5091379;28;20055;-62
2023/10/07 08:22:45;;;;;;;21.05;12.70;;;;;;;;;;5091321;28;20081;-62
2023/10/07 08:25:25;;;;;;;24.48;12.93;;;;;;;;;;5089702;28;20048;-63
2023/10/07 08:27:52;;;;;;;22.65;13.68;;;;;;;;;;5079300;28;20097;-63
2023/10/07 08:30:37;;;;;;;21.95;11.90;;;;;;;;;;5087350;28;20107;-62
2023/10/07 08:33:06;;;;;;;21.77;11.70;;;;;;;;;;5088298;28;20043;-63
2023/10/07 08:35:34;;;;;;;20.83;11.88;;;;;;;;;;5087129;28;20040;-63
2023/10/07 08:38:19;;;;;;;19.30;12.30;;;;;;;;;;5086063;28;20044;-63
2023/10/07 08:40:49;;;;;;;19.10;10.65;;;;;;;;;;5090390;28;20036;-62
2023/10/07 08:43:19;;;;;;;25.65;11.48;;;;;;;;;;5087951;28;20536;-62
2023/10/07 08:45:45;;;;;;;19.45;11.38;;;;;;;;;;5088872;28;20050;-63
2023/10/07 08:48:15;;;;;;;22.15;12.20;;;;;;;;;;5084128;28;20052;-63
2023/10/07 08:50:58;;;;;;;21.13;12.48;;;;;;;;;;5090037;28;20040;-63
2023/10/07 08:53:24;;;;;;;15.32;9.77;;;;;;;;;;5085669;28;20105;-63
2023/10/07 08:55:54;;;;;;;17.35;10.20;;;;;;;;;;5071946;28;20039;-62
2023/10/07 08:58:28;;;;;;;17.20;10.55;;;;;;;;;;5081305;28;20040;-63
2023/10/07 09:00:55;;;;;;;20.50;10.73;;;;;;;;;;5088415;28;20115;-62
2023/10/07 09:03:26;;;;;;;14.65;8.75;;;;;;;;;;5087190;28;20036;-62
2023/10/07 09:05:52;;;;;;;16.45;9.40;;;;;;;;;;5086829;28;20635;-63
2023/10/07 09:08:22;;;;;;;;;;;;;;;;;;5087800;28;20065;-65
2023/10/07 09:10:50;;;;;;;17.10;9.68;;;;;;;;;;5090605;28;20291;-62
2023/10/07 09:13:26;;;;;;;15.60;9.70;;;;;;;;;;5087411;28;20036;-62
2023/10/07 09:15:53;;;;;;;15.23;9.35;;;;;;;;;;5088764;28;20054;-63
2023/10/07 09:18:23;;;;;;;18.30;9.43;;;;;;;;;;5086835;28;20403;-63
2023/10/07 09:20:50;;;;;;;16.65;9.95;;;;;;;;;;5083478;28;20048;-63
2023/10/07 09:23:20;;;;;;;16.95;9.55;;;;;;;;;;5082939;28;20641;-64
2023/10/07 09:25:52;;;;;;;16.65;9.90;;;;;;;;;;5087395;28;20047;-64
2023/10/07 09:28:30;;;;;;;18.63;9.70;;;;;;;;;;5084092;28;20032;-63
2023/10/07 09:30:58;;;;;;;18.27;10.90;;;;;;;;;;5087320;28;20075;-63
2023/10/07 09:33:35;;;;;;;15.38;8.82;;;;;;;;;;5086899;28;20044;-63
2023/10/07 09:38:48;;;;;;;15.52;10.15;;;;;;;;;;5085961;28;20142;-64
2023/10/07 09:41:24;;;;;;;15.60;9.52;;;;;;;;;;5092136;28;20042;-64
2023/10/07 09:43:56;;;;;;;14.60;8.40;;;;;;;;;;5085649;28;20032;-62
2023/10/07 09:46:27;;;;;;;13.77;9.18;;;;;;;;;;5088932;28;20071;-63
2023/10/07 09:48:53;;;;;;;13.13;8.52;;;;;;;;;;5084901;28;20044;-65
2023/10/07 09:51:24;;;;;;;18.40;9.00;;;;;;;;;;5088602;28;20040;-64
2023/10/07 09:54:02;;;;;;;12.32;8.05;;;;;;;;;;5085844;28;20063;-65
2023/10/07 09:56:44;;;;;;;10.60;6.40;;;;;;;;;;5085218;28;20119;-65
2023/10/07 09:59:26;;;;;;;16.65;8.20;;;;;;;;;;5085764;28;20040;-64
2023/10/07 10:02:24;;;;;;;13.02;7.78;;;;;;;;;;5087988;28;20055;-63
2023/10/07 10:04:51;;;;;;;15.20;7.25;;;;;;;;;;5088583;28;20119;-62
2023/10/07 10:07:39;;;;;;;11.55;6.38;;;;;;;;;;5086342;28;20046;-63
2023/10/07 10:10:07;;;;;;;13.93;7.40;;;;;;;;;;5087969;28;20127;-63
2023/10/07 10:12:56;;;;;;;11.35;6.10;;;;;;;;;;5084082;28;20033;-63
2023/10/07 10:18:02;;;;;;;11.05;6.25;;;;;;;;;;5085109;28;20044;-63
2023/10/07 10:20:42;;;;;;;11.00;6.03;;;;;;;;;;5085445;28;20083;-62
2023/10/07 10:23:18;;;;;;;16.63;7.43;;;;;;;;;;5083243;28;20118;-62
2023/10/07 10:25:48;;;;;;;;;;;;;;;;;;5086656;28;20067;-63
2023/10/07 10:28:27;;;;;;;17.25;7.18;;;;;;;;;;5085826;28;19923;-63
2023/10/07 10:30:54;;;;;;;11.05;6.90;;;;;;;;;;5087410;28;20097;-62
2023/10/07 10:33:21;;;;;;;10.05;5.88;;;;;;;;;;5087045;28;20568;-62
2023/10/07 10:35:57;;;;;;;13.73;6.55;;;;;;;;;;5088207;28;20082;-62
2023/10/07 10:38:35;;;;;;;9.00;5.63;;;;;;;;;;5086539;28;20040;-62
2023/10/07 10:41:04;;;;;;;10.52;6.18;;;;;;;;;;5084642;28;20040;-62
2023/10/07 10:43:31;;;;;;;13.63;8.25;;;;;;;;;;5084441;28;20499;-62
2023/10/07 10:46:01;;;;;;;14.30;6.25;;;;;;;;;;5088060;28;20079;-64
2023/10/07 10:48:30;;;;;;;12.35;6.20;;;;;;;;;;5087129;28;20131;-63
2023/10/07 10:50:56;;;;;;;12.10;6.38;;;;;;;;;;5087341;28;20503;-64
2023/10/07 10:53:23;;;;;;;9.57;5.45;;;;;;;;;;5088611;28;20090;-63
2023/10/07 10:55:50;;;;;;;13.25;5.88;;;;;;;;;;5087682;28;20105;-62
2023/10/07 10:58:19;;;;;;;10.70;5.82;;;;;;;;;;5089440;28;20115;-63
2023/10/07 11:00:49;;;;;;;9.45;5.47;;;;;;;;;;5084815;28;20047;-63
2023/10/07 11:03:21;;;;;;;8.38;5.15;;;;;;;;;;5088978;28;20081;-63
2023/10/07 11:05:48;;;;;;;7.88;5.18;;;;;;;;;;5087443;28;20114;-64
2023/10/07 11:08:22;;;;;;;10.70;5.50;;;;;;;;;;5087373;28;20067;-64
2023/10/07 11:10:48;;;;;;;8.00;4.80;;;;;;;;;;5084533;28;20040;-64
2023/10/07 11:13:15;;;;;;;8.38;4.63;;;;;;;;;;5090974;28;20070;-64
2023/10/07 11:15:41;;;;;;;9.13;4.63;;;;;;;;;;5090604;28;20036;-63
2023/10/07 11:18:14;;;;;;;;;;;;;;;;;;5085645;28;20032;-63
2023/10/07 11:20:43;;;;;;;9.27;4.53;;;;;;;;;;5093788;28;19919;-63
2023/10/07 11:23:10;;;;;;;10.68;4.82;;;;;;;;;;5090089;28;20048;-64
2023/10/07 11:25:36;;;;;;;6.93;4.57;;;;;;;;;;5089138;28;20043;-64
2023/10/07 11:28:07;;;;;;;;;;;;;;;;;;5085296;28;20032;-64
2023/10/07 11:30:55;;;;;;;11.50;4.05;;;;;;;;;;5083765;28;20410;-63
2023/10/07 11:33:21;;;;;;;10.95;4.53;;;;;;;;;;5083006;28;20036;-64
2023/10/07 11:35:58;;;;;;;6.20;4.35;;;;;;;;;;5085763;28;20040;-64
2023/10/07 11:38:25;;;;;;;6.45;4.38;;;;;;;;;;5084176;28;20044;-65
2023/10/07 11:40:51;;;;;;;9.65;4.60;;;;;;;;;;5087586;28;20068;-64
2023/10/07 11:43:17;;;;;;;9.65;4.20;;;;;;;;;;5080410;28;20456;-64
2023/10/07 11:45:44;;;;;;;;;;;;;;;;;;5087938;28;20087;-64
2023/10/07 11:48:11;;;;;;;7.50;4.15;;;;;;;;;;5083885;28;19947;-64
2023/10/07 11:50:37;;;;;;;6.32;3.50;;;;;;;;;;5087883;28;20048;-64
2023/10/07 11:53:04;;;;;;;6.22;3.88;;;;;;;;;;5084784;28;20048;-64
2023/10/07 11:55:33;;;;;;;7.20;4.20;;;;;;;;;;5083113;28;20030;-65
2023/10/07 11:58:02;;;;;;;6.53;3.88;;;;;;;;;;5085142;28;20057;-64
2023/10/07 12:00:31;;;;;;;9.23;3.83;;;;;;;;;;5083284;28;20043;-64
2023/10/07 12:02:58;;;;;;;6.95;3.28;;;;;;;;;;5084794;28;20060;-64
2023/10/07 12:05:27;;;;;;;4.95;2.83;;;;;;;;;;5081417;28;20185;-64
2023/10/07 12:07:59;;;;;;;7.95;2.88;;;;;;;;;;5082584;28;20044;-63
2023/10/07 12:10:26;;;;;;;6.97;3.15;;;;;;;;;;5086144;28;20036;-63
2023/10/07 12:12:52;;;;;;;7.38;3.05;;;;;;;;;;5081343;28;20102;-64
2023/10/07 12:15:18;;;;;;;6.18;3.05;;;;;;;;;;5089919;28;20131;-64
2023/10/07 12:17:50;;;;;;;4.90;3.30;;;;;;;;;;5087896;28;20040;-64
2023/10/07 12:20:16;;;;;;;9.85;2.85;;;;;;;;;;5089652;28;20075;-63
2023/10/07 12:22:43;;;;;;;4.93;2.67;;;;;;;;;;5087813;28;20037;-64
2023/10/07 12:25:16;;;;;;;5.57;2.50;;;;;;;;;;5090626;28;20114;-64
2023/10/07 12:27:45;;;;;;;5.72;2.90;;;;;;;;;;5088513;28;20438;-64
2023/10/07 12:30:14;;;;;;;12.68;2.95;;;;;;;;;;5087450;28;20044;-64
2023/10/07 12:32:40;;;;;;;10.25;2.88;;;;;;;;;;5088646;28;20044;-63
2023/10/07 12:35:09;;;;;;;4.43;2.60;;;;;;;;;;5090361;28;20036;-64
2023/10/07 12:37:38;;;;;;;9.07;2.45;;;;;;;;;;5087629;28;20039;-64
2023/10/07 12:40:10;;;;;;;6.47;2.47;;;;;;;;;;5091874;28;20036;-64
2023/10/07 12:42:36;;;;;;;5.60;2.60;;;;;;;;;;5097977;28;20498;-64
2023/10/07 12:45:02;;;;;;;;;;;;;;;;;;5089585;28;20062;-64
2023/10/07 12:47:29;;;;;;;5.72;2.38;;;;;;;;;;5086303;28;19927;-64
2023/10/07 12:49:55;;;;;;;7.20;2.50;;;;;;;;;;5089590;28;20522;-64
2023/10/07 12:52:24;;;;;;;4.97;2.10;;;;;;;;;;5091121;28;20484;-63
2023/10/07 12:54:50;;;;;;;6.70;2.22;;;;;;;;;;5091680;28;20048;-64
2023/10/07 12:57:16;;;;;;;6.32;2.38;;;;;;;;;;5086669;28;20092;-63
2023/10/07 12:59:42;;;;;;;4.75;2.10;;;;;;;;;;5089175;28;20479;-63
2023/10/07 13:02:17;;;;;;;;;;;;;;;;;;5087534;27;20036;-64
2023/10/07 13:04:44;;;;;;;9.00;2.20;;;;;;;;;;5085571;28;19915;-64
2023/10/07 13:07:11;;;;;;;6.70;2.45;;;;;;;;;;5087945;28;20115;-64
2023/10/07 13:09:40;;;;;;;5.90;2.42;;;;;;;;;;5084793;28;20043;-64
2023/10/07 13:12:15;;;;;;;4.78;2.10;;;;;;;;;;5091768;28;20105;-63
2023/10/07 13:14:41;;;;;;;6.15;1.92;;;;;;;;;;5093524;28;20040;-64
2023/10/07 13:17:07;;;;;;;;;;;;;;;;;;5090256;28;20059;-64
2023/10/07 13:19:37;;;;;;;5.72;2.10;;;;;;;;;;5088702;28;20446;-63
2023/10/07 13:22:05;;;;;;;9.10;2.35;;;;;;;;;;5087410;28;20060;-63
2023/10/07 13:24:34;;;;;;;7.65;2.33;;;;;;;;;;5086157;28;20059;-63
2023/10/07 13:27:02;;;;;;;7.03;2.50;;;;;;;;;;5088923;28;20066;-62
2023/10/07 13:29:28;;;;;;;5.43;2.20;;;;;;;;;;5085946;28;20058;-63
2023/10/07 13:31:54;;;;;;;8.98;2.53;;;;;;;;;;5084934;27;20043;-63
2023/10/07 13:34:21;;;;;;;;;;;;;;;;;;5088202;28;20400;-64
2023/10/07 13:36:48;;;;;;;;;;;;;;;;;;5089735;28;20447;-64
2023/10/07 13:39:17;;;;;;;7.60;2.55;;;;;;;;;;5088762;28;19920;-63
2023/10/07 13:41:43;;;;;;;7.32;2.22;;;;;;;;;;5089147;28;20050;-64
2023/10/07 13:44:10;;;;;;;5.60;2.33;;;;;;;;;;5085796;28;20403;-64
2023/10/07 13:46:36;;;;;;;7.20;2.00;;;;;;;;;;5086576;28;20136;-63
2023/10/07 13:49:02;;;;;;;7.35;2.28;;;;;;;;;;5088128;28;20043;-63
2023/10/07 13:51:31;;;;;;;5.40;2.10;;;;;;;;;;5088631;28;20043;-63
2023/10/07 13:56:47;;;;;;;5.88;2.58;;;;;;;;;;5088091;28;20044;-63
2023/10/07 13:59:13;;;;;;;6.18;2.20;;;;;;;;;;5087287;28;20047;-64
2023/10/07 14:01:42;;;;;;;5.55;2.20;;;;;;;;;;5087573;28;20054;-63
2023/10/07 14:04:08;;;;;;;5.68;2.28;;;;;;;;;;5087963;28;20052;-65
2023/10/07 14:06:36;;;;;;;;;;;;;;;;;;5088495;28;20044;-65
2023/10/07 14:09:03;;;;;;;;;;;;;;;;;;5086195;28;19920;-64
2023/10/07 14:11:31;;;;;;;;;;;;;;;;;;5088368;28;20326;-64
2023/10/07 14:14:00;;;;;;;;;;;;;;;;;;5087921;28;19927;-64
2023/10/07 14:16:26;;;;;;;;;;;;;;;;;;5088599;28;20189;-64
2023/10/07 14:18:53;;;;;;;;;;;;;;;;;;5088394;28;19946;-65
2023/10/07 14:21:20;;;;;;;;;;;;;;;;;;5088698;28;19966;-64
2023/10/07 14:23:46;;;;;;;;;;;;;;;;;;5085801;28;20358;-64
2023/10/07 14:26:12;;;;;;;;;;;;;;;;;;5088310;28;19966;-65
2023/10/07 14:28:40;;;;;;;;;;;;;;;;;;5087017;28;19916;-64
2023/10/07 14:31:07;;;;;;;;;;;;;;;;;;5087950;28;20193;-64
2023/10/07 14:33:34;;;;;;;;;;;;;;;;;;5087018;28;19916;-64
2023/10/07 14:36:00;;;;;;;;;;;;;;;;;;5088478;28;19916;-64
2023/10/07 14:38:26;;;;;;;;;;;;;;;;;;5086455;28;20692;-64
2023/10/07 14:40:53;;;;;;;;;;;;;;;;;;5088088;28;19920;-65
2023/10/07 14:43:19;;;;;;;;;;;;;;;;;;5087495;28;19959;-64
2023/10/07 14:45:45;;;;;;;;;;;;;;;;;;5088070;28;19951;-64
2023/10/07 14:48:11;;;;;;;;;;;;;;;;;;5086520;28;19969;-64
2023/10/07 14:50:40;;;;;;;;;;;;;;;;;;5086345;28;19916;-64
2023/10/07 14:53:05;;;;;;;;;;;;;;;;;;5085407;28;19920;-65
2023/10/07 14:55:32;;;;;;;;;;;;;;;;;;5086560;28;19970;-65
2023/10/07 14:58:00;;;;;;;;;;;;;;;;;;5086724;28;19927;-64
2023/10/07 15:00:26;;;;;;;;;;;;;;;;;;5085045;28;20052;-65
2023/10/07 15:02:52;;;;;;;;;;;;;;;;;;5084861;28;19927;-65
2023/10/07 15:05:19;;;;;;;;;;;;;;;;;;5086997;28;19981;-64
2023/10/07 15:07:46;;;;;;;;;;;;;;;;;;5088407;28;20004;-64
2023/10/07 15:10:11;;;;;;;;;;;;;;;;;;5088055;28;19923;-64
2023/10/07 15:12:38;;;;;;;;;;;;;;;;;;5084464;28;20329;-64
2023/10/07 15:15:06;;;;;;;;;;;;;;;;;;5085791;28;20334;-64
2023/10/07 15:17:32;;;;;;;;;;;;;;;;;;5083541;28;19924;-65
2023/10/07 15:19:59;;;;;;;;;;;;;;;;;;5086391;28;20287;-65
2023/10/07 15:22:25;;;;;;;;;;;;;;;;;;5084938;28;19920;-65
2023/10/07 15:24:51;;;;;;;;;;;;;;;;;;5084108;28;19934;-64
2023/10/07 15:27:17;;;;;;;;;;;;;;;;;;5086725;28;20087;-64
2023/10/07 15:29:43;;;;;;;;;;;;;;;;;;5084973;28;20006;-64